sensor_id;sensor_type;location;lat;lon;timestamp;temperature;humidity
2363;DHT22;64265;51.664;7.626;2023-06-26T00:00:32;25.80;92.40
2363;DHT22;64265;51.664;7.626;2023-06-26T00:02:59;25.80;92.40
2363;DHT22;64265;51.664;7.626;2023-06-26T00:05:25;25.80;92.40
2363;DHT22;64265;51.664;7.626;2023-06-26T00:07:53;25.80;92.40
2363;DHT22;64265;51.664;7.626;2023-06-26T00:10:20;25.80;92.40
2363;DHT22;64265;51.664;7.626;2023-06-26T00:12:46;25.80;92.40
2363;DHT22;64265;51.664;7.626;2023-06-26T00:15:14;25.80;92.40
2363;DHT22;64265;51.664;7.626;2023-06-26T00:17:41;25.80;92.40
2363;DHT22;64265;51.664;7.626;2023-06-26T00:20:08;25.70;92.30
2363;DHT22;64265;51.664;7.626;2023-06-26T00:22:35;25.70;92.40
2363;DHT22;64265;51.664;7.626;2023-06-26T00:25:06;25.70;92.40
2363;DHT22;64265;51.664;7.626;2023-06-26T00:27:33;25.70;92.40
2363;DHT22;64265;51.664;7.626;2023-06-26T00:29:59;25.80;92.40
2363;DHT22;64265;51.664;7.626;2023-06-26T00:32:27;25.70;92.40
2363;DHT22;64265;51.664;7.626;2023-06-26T00:34:54;25.70;92.40
2363;DHT22;64265;51.664;7.626;2023-06-26T00:37:21;25.70;92.40
2363;DHT22;64265;51.664;7.626;2023-06-26T00:39:48;25.70;92.40
2363;DHT22;64265;51.664;7.626;2023-06-26T00:42:14;25.70;92.40
2363;DHT22;64265;51.664;7.626;2023-06-26T00:44:41;25.70;92.40
2363;DHT22;64265;51.664;7.626;2023-06-26T00:47:09;25.70;92.40
2363;DHT22;64265;51.664;7.626;2023-06-26T00:49:37;25.70;92.40
2363;DHT22;64265;51.664;7.626;2023-06-26T00:52:05;25.70;92.40
2363;DHT22;64265;51.664;7.626;2023-06-26T00:54:32;25.70;92.40
2363;DHT22;64265;51.664;7.626;2023-06-26T00:56:59;25.70;92.40
2363;DHT22;64265;51.664;7.626;2023-06-26T00:59:25;25.70;92.40
2363;DHT22;64265;51.664;7.626;2023-06-26T01:01:52;25.70;92.40
2363;DHT22;64265;51.664;7.626;2023-06-26T01:04:19;25.70;92.40
2363;DHT22;64265;51.664;7.626;2023-06-26T01:06:47;25.70;92.40
2363;DHT22;64265;51.664;7.626;2023-06-26T01:09:16;25.70;92.40
2363;DHT22;64265;51.664;7.626;2023-06-26T01:11:44;25.70;92.40
2363;DHT22;64265;51.664;7.626;2023-06-26T01:14:10;25.70;92.40
2363;DHT22;64265;51.664;7.626;2023-06-26T01:16:38;25.70;92.40
2363;DHT22;64265;51.664;7.626;2023-06-26T01:19:08;25.70;92.40
2363;DHT22;64265;51.664;7.626;2023-06-26T01:21:42;25.70;92.40
2363;DHT22;64265;51.664;7.626;2023-06-26T01:24:16;25.70;92.40
2363;DHT22;64265;51.664;7.626;2023-06-26T01:26:49;25.70;92.40
2363;DHT22;64265;51.664;7.626;2023-06-26T01:29:17;25.70;92.40
2363;DHT22;64265;51.664;7.626;2023-06-26T01:31:45;25.70;92.40
2363;DHT22;64265;51.664;7.626;2023-06-26T01:34:15;25.70;92.40
2363;DHT22;64265;51.664;7.626;2023-06-26T01:36:42;25.70;92.40
2363;DHT22;64265;51.664;7.626;2023-06-26T01:39:08;25.70;92.40
2363;DHT22;64265;51.664;7.626;2023-06-26T01:41:35;25.70;92.40
2363;DHT22;64265;51.664;7.626;2023-06-26T01:44:15;25.70;92.40
2363;DHT22;64265;51.664;7.626;2023-06-26T01:46:49;25.70;92.40
2363;DHT22;64265;51.664;7.626;2023-06-26T01:49:21;25.70;92.50
2363;DHT22;64265;51.664;7.626;2023-06-26T01:51:55;25.70;92.40
2363;DHT22;64265;51.664;7.626;2023-06-26T01:54:25;25.70;92.40
2363;DHT22;64265;51.664;7.626;2023-06-26T01:56:57;25.70;92.40
2363;DHT22;64265;51.664;7.626;2023-06-26T01:59:29;25.70;92.50
2363;DHT22;64265;51.664;7.626;2023-06-26T02:01:57;25.70;92.40
2363;DHT22;64265;51.664;7.626;2023-06-26T02:04:24;25.70;92.50
2363;DHT22;64265;51.664;7.626;2023-06-26T02:06:51;25.70;92.50
2363;DHT22;64265;51.664;7.626;2023-06-26T02:09:17;25.70;92.50
2363;DHT22;64265;51.664;7.626;2023-06-26T02:11:45;25.70;92.50
2363;DHT22;64265;51.664;7.626;2023-06-26T02:14:11;25.70;92.80
2363;DHT22;64265;51.664;7.626;2023-06-26T02:16:39;25.70;92.50
2363;DHT22;64265;51.664;7.626;2023-06-26T02:19:06;25.70;92.50
2363;DHT22;64265;51.664;7.626;2023-06-26T02:21:33;25.70;92.50
2363;DHT22;64265;51.664;7.626;2023-06-26T02:24:01;25.70;92.50
2363;DHT22;64265;51.664;7.626;2023-06-26T02:26:27;25.60;92.50
2363;DHT22;64265;51.664;7.626;2023-06-26T02:28:54;25.60;92.50
2363;DHT22;64265;51.664;7.626;2023-06-26T02:31:21;25.60;92.50
2363;DHT22;64265;51.664;7.626;2023-06-26T02:33:49;25.60;92.50
2363;DHT22;64265;51.664;7.626;2023-06-26T02:36:15;25.60;92.50
2363;DHT22;64265;51.664;7.626;2023-06-26T02:38:42;25.60;92.50
2363;DHT22;64265;51.664;7.626;2023-06-26T02:41:09;25.60;92.50
2363;DHT22;64265;51.664;7.626;2023-06-26T02:43:35;25.60;92.40
2363;DHT22;64265;51.664;7.626;2023-06-26T02:46:02;25.60;92.50
2363;DHT22;64265;51.664;7.626;2023-06-26T02:48:29;25.60;92.50
2363;DHT22;64265;51.664;7.626;2023-06-26T02:50:57;25.60;92.50
2363;DHT22;64265;51.664;7.626;2023-06-26T02:53:23;25.60;92.50
2363;DHT22;64265;51.664;7.626;2023-06-26T02:55:50;25.60;92.50
2363;DHT22;64265;51.664;7.626;2023-06-26T02:58:17;25.60;92.50
2363;DHT22;64265;51.664;7.626;2023-06-26T03:00:44;25.60;92.50
2363;DHT22;64265;51.664;7.626;2023-06-26T03:03:12;25.60;92.50
2363;DHT22;64265;51.664;7.626;2023-06-26T03:05:39;25.60;92.50
2363;DHT22;64265;51.664;7.626;2023-06-26T03:08:07;25.60;92.50
2363;DHT22;64265;51.664;7.626;2023-06-26T03:10:33;25.60;92.50
2363;DHT22;64265;51.664;7.626;2023-06-26T03:13:00;25.60;92.50
2363;DHT22;64265;51.664;7.626;2023-06-26T03:15:27;25.60;92.90
2363;DHT22;64265;51.664;7.626;2023-06-26T03:17:53;25.60;92.50
2363;DHT22;64265;51.664;7.626;2023-06-26T03:20:20;25.60;92.50
2363;DHT22;64265;51.664;7.626;2023-06-26T03:22:47;25.60;92.50
2363;DHT22;64265;51.664;7.626;2023-06-26T03:25:15;25.60;92.50
2363;DHT22;64265;51.664;7.626;2023-06-26T03:27:42;25.60;92.50
2363;DHT22;64265;51.664;7.626;2023-06-26T03:30:09;25.60;92.50
2363;DHT22;64265;51.664;7.626;2023-06-26T03:32:36;25.60;92.50
2363;DHT22;64265;51.664;7.626;2023-06-26T03:35:03;25.60;92.50
2363;DHT22;64265;51.664;7.626;2023-06-26T03:37:30;25.60;92.50
2363;DHT22;64265;51.664;7.626;2023-06-26T03:39:57;25.60;92.90
2363;DHT22;64265;51.664;7.626;2023-06-26T03:42:25;25.60;92.50
2363;DHT22;64265;51.664;7.626;2023-06-26T03:44:51;25.60;92.50
2363;DHT22;64265;51.664;7.626;2023-06-26T03:47:18;25.60;92.50
2363;DHT22;64265;51.664;7.626;2023-06-26T03:49:45;25.60;92.90
2363;DHT22;64265;51.664;7.626;2023-06-26T03:52:11;25.60;92.50
2363;DHT22;64265;51.664;7.626;2023-06-26T03:54:38;25.60;92.50
2363;DHT22;64265;51.664;7.626;2023-06-26T03:57:05;25.50;92.50
2363;DHT22;64265;51.664;7.626;2023-06-26T03:59:33;25.50;92.50
2363;DHT22;64265;51.664;7.626;2023-06-26T04:01:59;25.60;92.50
2363;DHT22;64265;51.664;7.626;2023-06-26T04:04:26;25.60;92.50
2363;DHT22;64265;51.664;7.626;2023-06-26T04:06:53;25.60;92.50
2363;DHT22;64265;51.664;7.626;2023-06-26T04:09:20;25.60;92.50
2363;DHT22;64265;51.664;7.626;2023-06-26T04:11:46;25.60;92.50
2363;DHT22;64265;51.664;7.626;2023-06-26T04:14:13;25.60;92.60
2363;DHT22;64265;51.664;7.626;2023-06-26T04:16:41;25.60;92.90
2363;DHT22;64265;51.664;7.626;2023-06-26T04:19:08;25.60;92.50
2363;DHT22;64265;51.664;7.626;2023-06-26T04:21:35;25.60;92.60
2363;DHT22;64265;51.664;7.626;2023-06-26T04:24:02;25.50;92.50
2363;DHT22;64265;51.664;7.626;2023-06-26T04:26:29;25.50;92.50
2363;DHT22;64265;51.664;7.626;2023-06-26T04:28:55;25.60;92.50
2363;DHT22;64265;51.664;7.626;2023-06-26T04:31:22;25.60;92.50
2363;DHT22;64265;51.664;7.626;2023-06-26T04:33:50;25.50;92.90
2363;DHT22;64265;51.664;7.626;2023-06-26T04:36:20;25.60;92.60
2363;DHT22;64265;51.664;7.626;2023-06-26T04:38:47;25.50;92.50
2363;DHT22;64265;51.664;7.626;2023-06-26T04:41:14;25.50;92.50
2363;DHT22;64265;51.664;7.626;2023-06-26T04:43:41;25.50;92.50
2363;DHT22;64265;51.664;7.626;2023-06-26T04:46:08;25.50;92.50
2363;DHT22;64265;51.664;7.626;2023-06-26T04:48:34;25.50;92.50
2363;DHT22;64265;51.664;7.626;2023-06-26T04:51:02;25.50;92.50
2363;DHT22;64265;51.664;7.626;2023-06-26T04:53:29;25.50;92.50
2363;DHT22;64265;51.664;7.626;2023-06-26T04:55:56;25.50;92.50
2363;DHT22;64265;51.664;7.626;2023-06-26T04:58:22;25.50;92.50
2363;DHT22;64265;51.664;7.626;2023-06-26T05:00:49;25.50;92.50
2363;DHT22;64265;51.664;7.626;2023-06-26T05:03:17;25.50;92.60
2363;DHT22;64265;51.664;7.626;2023-06-26T05:05:44;25.50;92.60
2363;DHT22;64265;51.664;7.626;2023-06-26T05:08:16;25.50;92.60
2363;DHT22;64265;51.664;7.626;2023-06-26T05:10:44;25.50;92.60
2363;DHT22;64265;51.664;7.626;2023-06-26T05:13:11;25.50;92.60
2363;DHT22;64265;51.664;7.626;2023-06-26T05:15:40;25.50;92.60
2363;DHT22;64265;51.664;7.626;2023-06-26T05:18:07;25.50;92.60
2363;DHT22;64265;51.664;7.626;2023-06-26T05:20:34;25.50;92.60
2363;DHT22;64265;51.664;7.626;2023-06-26T05:23:01;25.50;92.60
2363;DHT22;64265;51.664;7.626;2023-06-26T05:25:30;25.50;92.50
2363;DHT22;64265;51.664;7.626;2023-06-26T05:27:58;25.50;92.60
2363;DHT22;64265;51.664;7.626;2023-06-26T05:30:25;25.50;92.60
2363;DHT22;64265;51.664;7.626;2023-06-26T05:32:53;25.50;92.60
2363;DHT22;64265;51.664;7.626;2023-06-26T05:35:20;25.50;92.60
2363;DHT22;64265;51.664;7.626;2023-06-26T05:37:48;25.50;92.60
2363;DHT22;64265;51.664;7.626;2023-06-26T05:40:17;25.50;92.60
2363;DHT22;64265;51.664;7.626;2023-06-26T05:42:46;25.50;92.60
2363;DHT22;64265;51.664;7.626;2023-06-26T05:45:13;25.50;92.60
2363;DHT22;64265;51.664;7.626;2023-06-26T05:47:40;25.50;92.60
2363;DHT22;64265;51.664;7.626;2023-06-26T05:50:08;25.50;92.60
2363;DHT22;64265;51.664;7.626;2023-06-26T05:52:35;25.50;92.60
2363;DHT22;64265;51.664;7.626;2023-06-26T05:55:04;25.50;92.60
2363;DHT22;64265;51.664;7.626;2023-06-26T05:57:32;25.50;92.60
2363;DHT22;64265;51.664;7.626;2023-06-26T06:00:01;25.50;92.60
2363;DHT22;64265;51.664;7.626;2023-06-26T06:02:31;25.50;92.60
2363;DHT22;64265;51.664;7.626;2023-06-26T06:04:57;25.50;92.60
2363;DHT22;64265;51.664;7.626;2023-06-26T06:07:24;25.50;92.60
2363;DHT22;64265;51.664;7.626;2023-06-26T06:09:51;25.50;92.60
2363;DHT22;64265;51.664;7.626;2023-06-26T06:12:18;25.50;92.60
2363;DHT22;64265;51.664;7.626;2023-06-26T06:14:44;25.50;92.60
2363;DHT22;64265;51.664;7.626;2023-06-26T06:17:12;25.50;92.70
2363;DHT22;64265;51.664;7.626;2023-06-26T06:19:39;25.50;92.60
2363;DHT22;64265;51.664;7.626;2023-06-26T06:22:06;25.50;92.70
2363;DHT22;64265;51.664;7.626;2023-06-26T06:24:32;25.60;92.70
2363;DHT22;64265;51.664;7.626;2023-06-26T06:26:59;25.60;92.70
2363;DHT22;64265;51.664;7.626;2023-06-26T06:29:26;25.60;93.10
2363;DHT22;64265;51.664;7.626;2023-06-26T06:31:52;25.60;92.70
2363;DHT22;64265;51.664;7.626;2023-06-26T06:34:20;25.60;92.80
2363;DHT22;64265;51.664;7.626;2023-06-26T06:36:47;25.60;92.80
2363;DHT22;64265;51.664;7.626;2023-06-26T06:39:15;25.60;92.80
2363;DHT22;64265;51.664;7.626;2023-06-26T06:41:42;25.60;92.80
2363;DHT22;64265;51.664;7.626;2023-06-26T06:44:08;25.60;93.20
2363;DHT22;64265;51.664;7.626;2023-06-26T06:46:35;25.60;92.80
2363;DHT22;64265;51.664;7.626;2023-06-26T06:49:02;25.60;92.80
2363;DHT22;64265;51.664;7.626;2023-06-26T06:51:31;25.60;92.80
2363;DHT22;64265;51.664;7.626;2023-06-26T06:53:57;25.60;92.80
2363;DHT22;64265;51.664;7.626;2023-06-26T06:56:24;25.60;92.80
2363;DHT22;64265;51.664;7.626;2023-06-26T06:58:50;25.60;92.80
2363;DHT22;64265;51.664;7.626;2023-06-26T07:01:17;25.60;92.80
2363;DHT22;64265;51.664;7.626;2023-06-26T07:03:44;25.60;92.80
2363;DHT22;64265;51.664;7.626;2023-06-26T07:06:10;25.60;92.80
2363;DHT22;64265;51.664;7.626;2023-06-26T07:08:38;25.60;93.10
2363;DHT22;64265;51.664;7.626;2023-06-26T07:11:05;25.60;92.80
2363;DHT22;64265;51.664;7.626;2023-06-26T07:13:32;25.60;92.80
2363;DHT22;64265;51.664;7.626;2023-06-26T07:15:58;25.60;92.80
2363;DHT22;64265;51.664;7.626;2023-06-26T07:18:25;25.60;92.80
2363;DHT22;64265;51.664;7.626;2023-06-26T07:20:52;25.70;92.80
2363;DHT22;64265;51.664;7.626;2023-06-26T07:23:18;25.60;92.80
2363;DHT22;64265;51.664;7.626;2023-06-26T07:25:46;25.70;92.80
2363;DHT22;64265;51.664;7.626;2023-06-26T07:28:13;25.70;92.80
2363;DHT22;64265;51.664;7.626;2023-06-26T07:30:40;25.70;92.80
2363;DHT22;64265;51.664;7.626;2023-06-26T07:33:07;25.70;92.80
2363;DHT22;64265;51.664;7.626;2023-06-26T07:35:33;25.70;92.90
2363;DHT22;64265;51.664;7.626;2023-06-26T07:38:00;25.70;92.90
2363;DHT22;64265;51.664;7.626;2023-06-26T07:40:27;25.70;92.80
2363;DHT22;64265;51.664;7.626;2023-06-26T07:42:55;25.70;92.80
2363;DHT22;64265;51.664;7.626;2023-06-26T07:45:23;25.70;92.80
2363;DHT22;64265;51.664;7.626;2023-06-26T07:47:50;25.70;92.90
2363;DHT22;64265;51.664;7.626;2023-06-26T07:50:17;25.70;92.90
2363;DHT22;64265;51.664;7.626;2023-06-26T07:52:47;25.70;92.90
2363;DHT22;64265;51.664;7.626;2023-06-26T07:55:14;25.70;92.90
2363;DHT22;64265;51.664;7.626;2023-06-26T07:57:40;25.70;92.90
2363;DHT22;64265;51.664;7.626;2023-06-26T08:00:09;25.70;92.80
2363;DHT22;64265;51.664;7.626;2023-06-26T08:02:37;25.70;92.80
2363;DHT22;64265;51.664;7.626;2023-06-26T08:08:25;25.70;92.90
2363;DHT22;64265;51.664;7.626;2023-06-26T08:10:52;25.70;92.80
2363;DHT22;64265;51.664;7.626;2023-06-26T08:13:19;25.70;92.80
2363;DHT22;64265;51.664;7.626;2023-06-26T08:15:47;25.80;92.90
2363;DHT22;64265;51.664;7.626;2023-06-26T08:18:14;25.80;92.90
2363;DHT22;64265;51.664;7.626;2023-06-26T08:20:40;25.80;92.90
2363;DHT22;64265;51.664;7.626;2023-06-26T08:23:07;25.80;92.90
2363;DHT22;64265;51.664;7.626;2023-06-26T08:25:34;25.80;93.30
2363;DHT22;64265;51.664;7.626;2023-06-26T08:28:00;25.80;93.40
2363;DHT22;64265;51.664;7.626;2023-06-26T08:30:27;25.70;93.40
2363;DHT22;64265;51.664;7.626;2023-06-26T08:39:36;25.80;93.60
2363;DHT22;64265;51.664;7.626;2023-06-26T08:42:06;25.70;93.50
2363;DHT22;64265;51.664;7.626;2023-06-26T08:44:32;25.70;93.50
2363;DHT22;64265;51.664;7.626;2023-06-26T08:47:00;25.80;93.50
2363;DHT22;64265;51.664;7.626;2023-06-26T08:49:31;25.80;93.60
2363;DHT22;64265;51.664;7.626;2023-06-26T08:52:10;25.80;93.70
2363;DHT22;64265;51.664;7.626;2023-06-26T08:54:45;25.80;93.80
2363;DHT22;64265;51.664;7.626;2023-06-26T08:57:15;25.80;93.80
2363;DHT22;64265;51.664;7.626;2023-06-26T08:59:44;25.70;93.70
2363;DHT22;64265;51.664;7.626;2023-06-26T09:02:11;25.80;93.70
2363;DHT22;64265;51.664;7.626;2023-06-26T09:04:39;25.80;93.70
2363;DHT22;64265;51.664;7.626;2023-06-26T09:07:07;25.80;93.70
2363;DHT22;64265;51.664;7.626;2023-06-26T09:09:33;25.80;93.70
2363;DHT22;64265;51.664;7.626;2023-06-26T09:12:03;25.80;93.60
2363;DHT22;64265;51.664;7.626;2023-06-26T09:14:29;25.80;93.80
2363;DHT22;64265;51.664;7.626;2023-06-26T09:16:58;25.80;93.90
2363;DHT22;64265;51.664;7.626;2023-06-26T09:19:24;25.80;93.90
2363;DHT22;64265;51.664;7.626;2023-06-26T09:21:52;25.80;94.10
2363;DHT22;64265;51.664;7.626;2023-06-26T09:24:18;25.80;94.20
2363;DHT22;64265;51.664;7.626;2023-06-26T09:26:49;25.80;93.90
2363;DHT22;64265;51.664;7.626;2023-06-26T09:29:18;25.80;94.00
2363;DHT22;64265;51.664;7.626;2023-06-26T09:31:45;25.80;94.00
2363;DHT22;64265;51.664;7.626;2023-06-26T09:34:12;25.80;94.10
2363;DHT22;64265;51.664;7.626;2023-06-26T09:36:39;25.80;94.20
2363;DHT22;64265;51.664;7.626;2023-06-26T09:39:08;25.80;94.40
2363;DHT22;64265;51.664;7.626;2023-06-26T09:41:37;25.80;94.30
2363;DHT22;64265;51.664;7.626;2023-06-26T09:44:05;25.80;94.10
2363;DHT22;64265;51.664;7.626;2023-06-26T09:46:34;25.80;93.90
2363;DHT22;64265;51.664;7.626;2023-06-26T09:49:05;25.80;93.90
2363;DHT22;64265;51.664;7.626;2023-06-26T09:51:32;25.80;93.90
2363;DHT22;64265;51.664;7.626;2023-06-26T09:53:59;25.90;93.90
2363;DHT22;64265;51.664;7.626;2023-06-26T09:56:27;25.90;93.70
2363;DHT22;64265;51.664;7.626;2023-06-26T09:58:56;25.90;93.60
2363;DHT22;64265;51.664;7.626;2023-06-26T10:01:23;25.90;93.60
2363;DHT22;64265;51.664;7.626;2023-06-26T10:03:51;25.90;93.60
2363;DHT22;64265;51.664;7.626;2023-06-26T10:06:22;25.90;93.50
2363;DHT22;64265;51.664;7.626;2023-06-26T10:08:51;26.00;93.40
2363;DHT22;64265;51.664;7.626;2023-06-26T10:11:21;26.00;93.30
2363;DHT22;64265;51.664;7.626;2023-06-26T10:13:50;26.00;93.40
2363;DHT22;64265;51.664;7.626;2023-06-26T10:16:21;26.10;93.30
2363;DHT22;64265;51.664;7.626;2023-06-26T10:18:52;26.10;93.20
2363;DHT22;64265;51.664;7.626;2023-06-26T10:21:20;26.20;93.20
2363;DHT22;64265;51.664;7.626;2023-06-26T10:23:50;26.20;93.20
2363;DHT22;64265;51.664;7.626;2023-06-26T10:26:20;26.20;93.10
2363;DHT22;64265;51.664;7.626;2023-06-26T10:28:49;26.20;92.90
2363;DHT22;64265;51.664;7.626;2023-06-26T10:31:20;26.20;92.90
2363;DHT22;64265;51.664;7.626;2023-06-26T10:33:48;26.20;92.80
2363;DHT22;64265;51.664;7.626;2023-06-26T10:36:18;26.30;92.70
2363;DHT22;64265;51.664;7.626;2023-06-26T10:38:52;26.30;92.60
2363;DHT22;64265;51.664;7.626;2023-06-26T10:41:22;26.30;92.50
2363;DHT22;64265;51.664;7.626;2023-06-26T10:43:52;26.30;92.30
2363;DHT22;64265;51.664;7.626;2023-06-26T10:46:33;26.40;92.40
2363;DHT22;64265;51.664;7.626;2023-06-26T10:49:00;26.40;92.40
2363;DHT22;64265;51.664;7.626;2023-06-26T10:51:31;26.40;92.30
2363;DHT22;64265;51.664;7.626;2023-06-26T10:54:00;26.40;92.00
2363;DHT22;64265;51.664;7.626;2023-06-26T10:56:43;26.40;92.00
2363;DHT22;64265;51.664;7.626;2023-06-26T10:59:15;26.40;91.70
2363;DHT22;64265;51.664;7.626;2023-06-26T11:01:43;26.50;91.80
2363;DHT22;64265;51.664;7.626;2023-06-26T11:04:10;26.50;91.70
2363;DHT22;64265;51.664;7.626;2023-06-26T11:06:39;26.50;91.50
2363;DHT22;64265;51.664;7.626;2023-06-26T11:09:10;26.50;91.40
2363;DHT22;64265;51.664;7.626;2023-06-26T11:11:56;26.60;91.40
2363;DHT22;64265;51.664;7.626;2023-06-26T11:14:25;26.60;91.10
2363;DHT22;64265;51.664;7.626;2023-06-26T11:16:53;26.60;91.20
2363;DHT22;64265;51.664;7.626;2023-06-26T11:19:21;26.60;91.30
2363;DHT22;64265;51.664;7.626;2023-06-26T11:21:50;26.60;91.10
2363;DHT22;64265;51.664;7.626;2023-06-26T11:24:18;26.70;91.00
2363;DHT22;64265;51.664;7.626;2023-06-26T11:26:45;26.70;90.20
2363;DHT22;64265;51.664;7.626;2023-06-26T11:29:13;26.70;89.60
2363;DHT22;64265;51.664;7.626;2023-06-26T11:31:40;26.70;87.50
2363;DHT22;64265;51.664;7.626;2023-06-26T11:34:09;26.70;86.90
2363;DHT22;64265;51.664;7.626;2023-06-26T11:36:37;26.70;85.00
2363;DHT22;64265;51.664;7.626;2023-06-26T11:39:06;26.70;84.60
2363;DHT22;64265;51.664;7.626;2023-06-26T11:41:34;26.70;85.40
2363;DHT22;64265;51.664;7.626;2023-06-26T11:44:01;26.70;85.30
2363;DHT22;64265;51.664;7.626;2023-06-26T11:46:28;26.70;83.70
2363;DHT22;64265;51.664;7.626;2023-06-26T11:48:55;26.70;83.20
2363;DHT22;64265;51.664;7.626;2023-06-26T11:51:22;26.70;83.00
2363;DHT22;64265;51.664;7.626;2023-06-26T11:53:50;26.70;83.10
2363;DHT22;64265;51.664;7.626;2023-06-26T11:56:19;26.70;82.00
2363;DHT22;64265;51.664;7.626;2023-06-26T11:58:58;26.70;82.80
2363;DHT22;64265;51.664;7.626;2023-06-26T12:01:26;26.70;82.50
2363;DHT22;64265;51.664;7.626;2023-06-26T12:03:59;26.70;83.40
2363;DHT22;64265;51.664;7.626;2023-06-26T12:06:28;26.70;82.60
2363;DHT22;64265;51.664;7.626;2023-06-26T12:08:56;26.70;83.20
2363;DHT22;64265;51.664;7.626;2023-06-26T12:11:24;26.80;83.30
2363;DHT22;64265;51.664;7.626;2023-06-26T12:13:52;26.80;82.50
2363;DHT22;64265;51.664;7.626;2023-06-26T12:16:19;26.80;82.60
2363;DHT22;64265;51.664;7.626;2023-06-26T12:18:46;26.80;83.10
2363;DHT22;64265;51.664;7.626;2023-06-26T12:21:28;26.70;82.00
2363;DHT22;64265;51.664;7.626;2023-06-26T12:23:58;26.70;81.80
2363;DHT22;64265;51.664;7.626;2023-06-26T12:26:28;26.80;81.70
2363;DHT22;64265;51.664;7.626;2023-06-26T12:29:02;26.70;82.10
2363;DHT22;64265;51.664;7.626;2023-06-26T12:31:32;26.70;81.20
2363;DHT22;64265;51.664;7.626;2023-06-26T12:33:59;26.70;81.70
2363;DHT22;64265;51.664;7.626;2023-06-26T12:36:26;26.70;81.80
2363;DHT22;64265;51.664;7.626;2023-06-26T12:38:53;26.70;81.70
2363;DHT22;64265;51.664;7.626;2023-06-26T12:41:24;26.70;81.60
2363;DHT22;64265;51.664;7.626;2023-06-26T12:43:56;26.70;81.50
2363;DHT22;64265;51.664;7.626;2023-06-26T12:46:33;26.80;82.50
2363;DHT22;64265;51.664;7.626;2023-06-26T12:49:00;26.80;82.40
2363;DHT22;64265;51.664;7.626;2023-06-26T12:51:28;26.70;83.30
2363;DHT22;64265;51.664;7.626;2023-06-26T12:53:55;26.70;81.60
2363;DHT22;64265;51.664;7.626;2023-06-26T12:56:21;26.70;81.40
2363;DHT22;64265;51.664;7.626;2023-06-26T12:58:48;26.70;81.30
2363;DHT22;64265;51.664;7.626;2023-06-26T13:01:16;26.70;80.30
2363;DHT22;64265;51.664;7.626;2023-06-26T13:03:45;26.70;80.10
2363;DHT22;64265;51.664;7.626;2023-06-26T13:06:12;26.70;80.20
2363;DHT22;64265;51.664;7.626;2023-06-26T13:08:40;26.70;79.80
2363;DHT22;64265;51.664;7.626;2023-06-26T13:11:06;26.60;78.90
2363;DHT22;64265;51.664;7.626;2023-06-26T13:13:33;26.60;78.60
2363;DHT22;64265;51.664;7.626;2023-06-26T13:16:00;26.60;77.50
2363;DHT22;64265;51.664;7.626;2023-06-26T13:18:29;26.60;78.30
2363;DHT22;64265;51.664;7.626;2023-06-26T13:20:55;26.50;77.60
2363;DHT22;64265;51.664;7.626;2023-06-26T13:23:22;26.50;76.70
2363;DHT22;64265;51.664;7.626;2023-06-26T13:25:49;26.50;76.20
2363;DHT22;64265;51.664;7.626;2023-06-26T13:28:17;26.50;77.60
2363;DHT22;64265;51.664;7.626;2023-06-26T13:30:43;26.60;78.80
2363;DHT22;64265;51.664;7.626;2023-06-26T13:33:10;26.50;78.70
2363;DHT22;64265;51.664;7.626;2023-06-26T13:35:38;26.60;79.20
2363;DHT22;64265;51.664;7.626;2023-06-26T13:38:05;26.60;79.70
2363;DHT22;64265;51.664;7.626;2023-06-26T13:40:32;26.60;80.10
2363;DHT22;64265;51.664;7.626;2023-06-26T13:42:59;26.60;80.40
2363;DHT22;64265;51.664;7.626;2023-06-26T13:45:26;26.60;80.90
2363;DHT22;64265;51.664;7.626;2023-06-26T13:47:53;26.60;80.90
2363;DHT22;64265;51.664;7.626;2023-06-26T13:50:21;26.60;81.00
2363;DHT22;64265;51.664;7.626;2023-06-26T13:52:49;26.60;77.60
2363;DHT22;64265;51.664;7.626;2023-06-26T13:55:17;26.50;74.80
2363;DHT22;64265;51.664;7.626;2023-06-26T13:57:44;26.50;75.40
2363;DHT22;64265;51.664;7.626;2023-06-26T14:00:13;26.40;75.10
2363;DHT22;64265;51.664;7.626;2023-06-26T14:02:45;26.40;74.80
2363;DHT22;64265;51.664;7.626;2023-06-26T14:05:12;26.40;74.50
2363;DHT22;64265;51.664;7.626;2023-06-26T14:07:39;26.40;75.20
2363;DHT22;64265;51.664;7.626;2023-06-26T14:10:08;26.40;74.40
2363;DHT22;64265;51.664;7.626;2023-06-26T14:12:34;26.40;74.60
2363;DHT22;64265;51.664;7.626;2023-06-26T14:15:01;26.40;74.60
2363;DHT22;64265;51.664;7.626;2023-06-26T14:17:29;26.40;74.50
2363;DHT22;64265;51.664;7.626;2023-06-26T14:19:55;26.40;74.50
2363;DHT22;64265;51.664;7.626;2023-06-26T14:22:22;26.40;74.10
2363;DHT22;64265;51.664;7.626;2023-06-26T14:24:49;26.40;73.70
2363;DHT22;64265;51.664;7.626;2023-06-26T14:27:17;26.40;73.70
2363;DHT22;64265;51.664;7.626;2023-06-26T14:29:44;26.40;73.90
2363;DHT22;64265;51.664;7.626;2023-06-26T14:32:11;26.40;74.00
2363;DHT22;64265;51.664;7.626;2023-06-26T14:34:39;26.40;74.20
2363;DHT22;64265;51.664;7.626;2023-06-26T14:37:06;26.40;74.50
2363;DHT22;64265;51.664;7.626;2023-06-26T14:39:33;26.50;74.70
2363;DHT22;64265;51.664;7.626;2023-06-26T14:42:00;26.50;74.70
2363;DHT22;64265;51.664;7.626;2023-06-26T14:44:28;26.50;74.90
2363;DHT22;64265;51.664;7.626;2023-06-26T14:46:54;26.50;75.10
2363;DHT22;64265;51.664;7.626;2023-06-26T14:49:21;26.50;75.40
2363;DHT22;64265;51.664;7.626;2023-06-26T14:51:48;26.50;75.50
2363;DHT22;64265;51.664;7.626;2023-06-26T14:54:15;26.60;75.80
2363;DHT22;64265;51.664;7.626;2023-06-26T14:56:41;26.60;75.10
2363;DHT22;64265;51.664;7.626;2023-06-26T14:59:09;26.60;74.90
2363;DHT22;64265;51.664;7.626;2023-06-26T15:01:38;26.60;74.80
2363;DHT22;64265;51.664;7.626;2023-06-26T15:04:05;26.60;74.30
2363;DHT22;64265;51.664;7.626;2023-06-26T15:06:31;26.60;74.00
2363;DHT22;64265;51.664;7.626;2023-06-26T15:08:59;26.60;74.20
2363;DHT22;64265;51.664;7.626;2023-06-26T15:11:27;26.60;73.30
2363;DHT22;64265;51.664;7.626;2023-06-26T15:13:55;26.60;72.80
2363;DHT22;64265;51.664;7.626;2023-06-26T15:16:22;26.60;72.20
2363;DHT22;64265;51.664;7.626;2023-06-26T15:18:50;26.60;71.70
2363;DHT22;64265;51.664;7.626;2023-06-26T15:21:17;26.60;71.50
2363;DHT22;64265;51.664;7.626;2023-06-26T15:23:45;26.60;71.10
2363;DHT22;64265;51.664;7.626;2023-06-26T15:26:12;26.60;70.50
2363;DHT22;64265;51.664;7.626;2023-06-26T15:28:39;26.60;70.50
2363;DHT22;64265;51.664;7.626;2023-06-26T15:31:06;26.60;70.70
2363;DHT22;64265;51.664;7.626;2023-06-26T15:33:33;26.60;70.40
2363;DHT22;64265;51.664;7.626;2023-06-26T15:36:01;26.60;70.30
2363;DHT22;64265;51.664;7.626;2023-06-26T15:38:29;26.60;70.20
2363;DHT22;64265;51.664;7.626;2023-06-26T15:40:55;26.60;70.50
2363;DHT22;64265;51.664;7.626;2023-06-26T15:43:22;26.60;70.50
2363;DHT22;64265;51.664;7.626;2023-06-26T15:45:49;26.60;70.40
2363;DHT22;64265;51.664;7.626;2023-06-26T15:48:16;26.60;70.10
2363;DHT22;64265;51.664;7.626;2023-06-26T15:50:43;26.60;70.30
2363;DHT22;64265;51.664;7.626;2023-06-26T15:53:15;26.60;70.00
2363;DHT22;64265;51.664;7.626;2023-06-26T15:55:42;26.60;69.90
2363;DHT22;64265;51.664;7.626;2023-06-26T15:58:09;26.60;70.10